Growing Degree Day Data for Fowler (FWL01)
Station: Fowler
Location: Fowler Golf Course
Lat: 38.14 °N Lon: -104 °E Elev: 4335 ft
Irrigation: full First obs: Mar 17, 2005 11:00
Lat: 38.14 °N Lon: -104 °E Elev: 4335 ft
Irrigation: full First obs: Mar 17, 2005 11:00
| Date | Accum. GDD °F | Daily GDD °F | Historical Avg °F |
|---|---|---|---|
| 04/01/2026 | 10.5 | 10.5 | 9.0 |
| 04/02/2026 | 24.8 | 14.3 | 18.7 |
| 04/03/2026 | 32.1 | 7.3 | 27.1 |
| 04/04/2026 | 38.7 | 6.6 | 36.3 |
| 04/05/2026 | 49.1 | 10.4 | 48.2 |
| 04/06/2026 | 63.6 | 14.5 | 56.6 |
| 04/07/2026 | 74.6 | 11.0 | 65.7 |
| 04/08/2026 | 90.4 | 15.7 | 77.9 |
| 04/09/2026 | 107.8 | 17.4 | 89.0 |
| 04/10/2026 | 113.7 | 5.9 | 98.3 |
| 04/11/2026 | 129.0 | 15.4 | 108.4 |
| 04/12/2026 | 143.9 | 14.9 | 120.1 |
| 04/13/2026 | 160.8 | 16.9 | 130.9 |
| 04/14/2026 | 173.0 | 12.2 | 141.5 |
| 04/15/2026 | 185.2 | 12.2 | 152.4 |
| 04/16/2026 | 201.3 | 16.1 | 162.5 |
| 04/17/2026 | 206.4 | 5.0 | 172.5 |
| 04/18/2026 | 212.4 | 6.0 | 182.8 |
| 04/19/2026 | 226.4 | 14.1 | 193.3 |
| 04/20/2026 | 244.4 | 18.0 | 203.7 |
| 04/21/2026 | 262.4 | 18.0 | 215.1 |
| 04/22/2026 | 280.4 | 18.0 | 227.2 |
| 04/23/2026 | 292.1 | 11.7 | 239.0 |
| 04/24/2026 | 305.8 | 13.7 | 249.3 |
| 04/25/2026 | 313.9 | 8.1 | 258.6 |
| 04/26/2026 | 326.9 | 13.0 | 269.4 |
| 04/27/2026 | 336.2 | 9.3 | 279.6 |
| 04/28/2026 | 344.9 | 8.7 | 290.1 |
| 04/29/2026 | 353.9 | 9.0 | 302.8 |
| 04/30/2026 | 353.9 | 0.0 | 314.1 |
| 05/01/2026 | 360.5 | 6.6 | 324.2 |
| 05/02/2026 | 372.5 | 12.0 | 333.4 |
| 05/03/2026 | 388.4 | 15.9 | 345.0 |
| 05/04/2026 | 404.1 | 15.7 | 357.6 |
| 05/05/2026 | 407.6 | 3.5 | 370.0 |
| 05/06/2026 | 407.6 | 384.7 | |
| 05/07/2026 | 420.8 | 13.2 | 397.1 |
| 05/08/2026 | 434.5 | 13.7 | 408.8 |
| 05/09/2026 | 452.2 | 17.8 | 421.7 |
| 05/10/2026 | 462.0 | 9.8 | 433.3 |
| 05/11/2026 | 480.0 | 18.0 | 443.9 |
| 05/12/2026 | 497.5 | 17.4 | 456.6 |
| 05/13/2026 | 515.5 | 18.0 | 469.7 |
| 05/14/2026 | 536.3 | 20.8 | 483.6 |
| 05/15/2026 | 556.5 | 20.3 | 496.8 |
| 05/16/2026 | 574.7 | 18.2 | 511.4 |
| 05/17/2026 | 591.1 | 16.4 | 526.8 |
| 05/18/2026 | 597.6 | 6.5 | 540.4 |
| 05/19/2026 | 605.3 | 7.7 | 553.2 |
| 05/20/2026 | 615.7 | 10.4 | 566.4 |
| 05/21/2026 | 630.1 | 14.4 | 581.6 |
| 05/22/2026 | 640.3 | 10.2 | 596.9 |
| 05/23/2026 | 656.2 | 16.0 | 611.1 |
| 05/24/2026 | 674.2 | 18.0 | 625.5 |
| 05/25/2026 | 693.4 | 19.1 | 640.3 |
| 05/26/2026 | 710.4 | 17.0 | 655.4 |
| 05/27/2026 | 720.1 | 9.7 | 671.2 |
| 05/28/2026 | 735.1 | 15.0 | 688.4 |
| 05/29/2026 | 756.4 | 21.3 | 705.1 |
| 05/30/2026 | 774.5 | 18.1 | 720.6 |
| 05/31/2026 | 792.5 | 18.0 | 736.8 |
| 06/01/2026 | 811.7 | 19.2 | 753.7 |
| 06/02/2026 | 829.1 | 17.4 | 771.4 |
| 06/03/2026 | 845.6 | 16.5 | 788.0 |
| 06/04/2026 | 863.6 | 18.0 | 806.3 |
| 06/05/2026 | 882.1 | 18.4 | 824.4 |
| 06/06/2026 | 902.6 | 20.6 | 844.8 |
| 06/07/2026 | 923.3 | 20.7 | 864.5 |
| 06/08/2026 | 945.8 | 22.5 | 883.7 |
| 06/09/2026 | 970.8 | 25.0 | 902.2 |
| 06/10/2026 | 993.1 | 22.4 | 921.1 |
| 06/11/2026 | 1012.2 | 19.0 | 940.0 |
| 06/12/2026 | 1031.5 | 19.3 | 958.5 |
| 06/13/2026 | 1051.9 | 20.4 | 977.6 |
| 06/14/2026 | 1068.9 | 17.0 | 997.6 |
| 06/15/2026 | 1089.1 | 20.2 | 1017.6 |
| 06/16/2026 | 1109.3 | 20.2 | 1037.6 |
| 06/17/2026 | 1129.9 | 20.6 | 1058.1 |
| 06/18/2026 | 1154.0 | 24.1 | 1079.5 |
| 06/19/2026 | 1175.6 | 21.5 | 1099.7 |
| 06/20/2026 | 1201.0 | 25.4 | 1120.9 |
| 06/21/2026 | 1224.5 | 23.5 | 1142.5 |
| 06/22/2026 | 1244.0 | 19.5 | 1163.2 |
| 06/23/2026 | 1268.7 | 24.7 | 1184.1 |
| 06/24/2026 | 1294.1 | 25.4 | 1205.5 |
| 06/25/2026 | 1316.5 | 22.4 | 1227.0 |
| 06/26/2026 | 1339.6 | 23.0 | 1248.4 |
| 06/27/2026 | 1361.3 | 21.7 | 1269.7 |
| 06/28/2026 | 1389.2 | 27.9 | 1291.3 |
| 06/29/2026 | 1413.0 | 23.8 | 1313.2 |
| 06/30/2026 | 1434.6 | 21.6 | 1334.9 |
| 07/01/2026 | 1456.3 | 21.7 | 1356.7 |
| 07/02/2026 | 1478.0 | 21.7 | 1379.0 |
| 07/03/2026 | 1498.7 | 20.7 | 1401.2 |
| 07/04/2026 | 1523.9 | 25.3 | 1423.1 |
| 07/05/2026 | 1549.3 | 25.4 | 1445.3 |
| 07/06/2026 | 1570.0 | 20.7 | 1467.8 |
| 07/07/2026 | 1594.7 | 24.7 | 1489.9 |
| 07/08/2026 | 1617.9 | 23.2 | 1512.5 |
| 07/09/2026 | 1640.6 | 22.7 | 1534.3 |
| 07/10/2026 | 1662.3 | 21.7 | 1557.3 |
| 07/11/2026 | 1684.7 | 22.4 | 1580.7 |
| 07/12/2026 | 1709.8 | 25.1 | 1603.4 |
| 07/13/2026 | 1734.2 | 24.5 | 1626.4 |
| 07/14/2026 | 1759.0 | 24.8 | 1650.1 |
| 07/15/2026 | 1784.1 | 25.1 | 1672.9 |
| 07/16/2026 | 1808.9 | 24.8 | 1695.7 |
| 07/17/2026 | 1833.9 | 25.0 | 1718.5 |
| 07/18/2026 | 1858.0 | 24.1 | 1741.9 |
| 07/19/2026 | 1884.2 | 26.2 | 1765.9 |
| 07/20/2026 | 1908.6 | 24.4 | 1789.6 |
| 07/21/2026 | 1933.3 | 24.7 | 1813.3 |
| 07/22/2026 | 1959.9 | 26.6 | 1836.3 |
| 07/23/2026 | 1985.2 | 25.3 | 1860.2 |
| 07/24/2026 | 2010.5 | 25.3 | 1884.0 |
| 07/25/2026 | 2037.1 | 26.5 | 1908.2 |
| 07/26/2026 | 2063.5 | 26.5 | 1931.7 |
| 07/27/2026 | 2088.1 | 24.6 | 1955.0 |
| 07/28/2026 | 2114.4 | 26.3 | 1978.1 |
| 07/29/2026 | 2139.4 | 25.0 | 2001.5 |
| 07/30/2026 | 2164.5 | 25.0 | 2023.6 |
| 07/31/2026 | 2191.0 | 26.5 | 2046.5 |
| 08/01/2026 | 2215.8 | 24.7 | 2069.4 |
| 08/02/2026 | 2240.1 | 24.3 | 2092.9 |
| 08/03/2026 | 2264.9 | 24.8 | 2116.0 |
| 08/04/2026 | 2286.7 | 21.8 | 2138.5 |
| 08/05/2026 | 2306.6 | 20.0 | 2161.2 |
| 08/06/2026 | 2329.0 | 22.4 | 2184.7 |
| 08/07/2026 | 2351.1 | 22.1 | 2207.6 |
| 08/08/2026 | 2374.3 | 23.2 | 2230.1 |
| 08/09/2026 | 2396.6 | 22.2 | 2252.1 |
| 08/10/2026 | 2421.6 | 25.0 | 2274.8 |
| 08/11/2026 | 2446.1 | 24.5 | 2297.2 |
| 08/12/2026 | 2472.4 | 26.3 | 2319.5 |
| 08/13/2026 | 2496.4 | 24.1 | 2341.6 |
| 08/14/2026 | 2521.2 | 24.7 | 2363.6 |
| 08/15/2026 | 2545.7 | 24.6 | 2385.1 |
| 08/16/2026 | 2568.7 | 23.0 | 2406.9 |
| 08/17/2026 | 2593.0 | 24.3 | 2428.2 |
| 08/18/2026 | 2616.2 | 23.2 | 2449.1 |
| 08/19/2026 | 2642.0 | 25.8 | 2470.5 |
| 08/20/2026 | 2664.9 | 22.9 | 2490.9 |
| 08/21/2026 | 2688.0 | 23.1 | 2512.3 |
| 08/22/2026 | 2713.8 | 25.8 | 2534.3 |
| 08/23/2026 | 2739.7 | 25.8 | 2556.3 |
| 08/24/2026 | 2762.6 | 23.0 | 2577.4 |
| 08/25/2026 | 2785.8 | 23.2 | 2597.9 |
| 08/26/2026 | 2808.3 | 22.5 | 2619.1 |
| 08/27/2026 | 2829.6 | 21.2 | 2640.6 |
| 08/28/2026 | 2849.9 | 20.3 | 2661.4 |
| 08/29/2026 | 2872.8 | 22.9 | 2681.5 |
| 08/30/2026 | 2895.6 | 22.7 | 2702.2 |
| 08/31/2026 | 2917.3 | 21.7 | 2722.3 |
| 09/01/2026 | 2941.7 | 24.4 | 2742.9 |
| 09/02/2026 | 2962.6 | 20.9 | 2762.6 |
| 09/03/2026 | 2782.1 | ||
| 09/04/2026 | 2800.6 | ||
| 09/05/2026 | 2818.8 | ||
| 09/06/2026 | 2837.1 | ||
| 09/07/2026 | 2855.6 | ||
| 09/08/2026 | 2873.4 | ||
| 09/09/2026 | 2891.9 | ||
| 09/10/2026 | 2908.2 | ||
| 09/11/2026 | 2925.0 | ||
| 09/12/2026 | 2942.0 | ||
| 09/13/2026 | 2958.6 | ||
| 09/14/2026 | 2975.0 | ||
| 09/15/2026 | 2991.9 | ||
| 09/16/2026 | 3009.4 | ||
| 09/17/2026 | 3025.9 | ||
| 09/18/2026 | 3042.5 | ||
| 09/19/2026 | 3060.4 | ||
| 09/20/2026 | 3078.4 | ||
| 09/21/2026 | 3094.6 | ||
| 09/22/2026 | 3109.6 | ||
| 09/23/2026 | 3125.2 | ||
| 09/24/2026 | 3140.5 | ||
| 09/25/2026 | 3155.4 | ||
| 09/26/2026 | 3171.9 | ||
| 09/27/2026 | 3188.1 | ||
| 09/28/2026 | 3201.8 | ||
| 09/29/2026 | 3217.7 | ||
| 09/30/2026 | 3233.0 | ||
| Date | Accum. GDD °F | Daily GDD °F | Historical Avg °F |